sensor_id;sensor_type;location;lat;lon;timestamp;P1;durP1;ratioP1;P2;durP2;ratioP2
79365;SDS011;68833;53.160;17.920;2023-04-24T00:01:39;12.00;;;9.60;;
79365;SDS011;68833;53.160;17.920;2023-04-24T00:04:11;10.20;;;9.00;;
79365;SDS011;68833;53.160;17.920;2023-04-24T00:06:43;9.90;;;8.90;;
79365;SDS011;68833;53.160;17.920;2023-04-24T00:09:17;10.20;;;8.60;;
79365;SDS011;68833;53.160;17.920;2023-04-24T00:11:50;13.30;;;10.20;;
79365;SDS011;68833;53.160;17.920;2023-04-24T00:14:18;12.50;;;10.20;;
79365;SDS011;68833;53.160;17.920;2023-04-24T00:16:47;11.50;;;10.30;;
79365;SDS011;68833;53.160;17.920;2023-04-24T00:19:14;12.50;;;10.50;;
79365;SDS011;68833;53.160;17.920;2023-04-24T00:21:43;9.80;;;8.30;;
79365;SDS011;68833;53.160;17.920;2023-04-24T00:24:14;9.50;;;8.50;;
79365;SDS011;68833;53.160;17.920;2023-04-24T00:26:43;11.20;;;7.80;;
79365;SDS011;68833;53.160;17.920;2023-04-24T00:29:10;9.00;;;8.10;;
79365;SDS011;68833;53.160;17.920;2023-04-24T00:31:48;9.70;;;8.70;;
79365;SDS011;68833;53.160;17.920;2023-04-24T00:34:16;10.50;;;7.60;;
79365;SDS011;68833;53.160;17.920;2023-04-24T00:36:45;9.50;;;8.50;;
79365;SDS011;68833;53.160;17.920;2023-04-24T00:39:15;11.40;;;9.60;;
79365;SDS011;68833;53.160;17.920;2023-04-24T00:41:43;10.20;;;8.10;;
79365;SDS011;68833;53.160;17.920;2023-04-24T00:44:18;10.80;;;9.10;;
79365;SDS011;68833;53.160;17.920;2023-04-24T00:46:57;11.10;;;9.00;;
79365;SDS011;68833;53.160;17.920;2023-04-24T00:49:28;10.50;;;9.50;;
79365;SDS011;68833;53.160;17.920;2023-04-24T00:51:57;11.80;;;10.70;;
79365;SDS011;68833;53.160;17.920;2023-04-24T00:54:26;10.00;;;8.80;;
79365;SDS011;68833;53.160;17.920;2023-04-24T00:56:56;11.00;;;9.70;;
79365;SDS011;68833;53.160;17.920;2023-04-24T00:59:30;12.00;;;10.70;;
79365;SDS011;68833;53.160;17.920;2023-04-24T01:01:58;12.70;;;10.40;;
79365;SDS011;68833;53.160;17.920;2023-04-24T01:04:29;11.30;;;10.10;;
79365;SDS011;68833;53.160;17.920;2023-04-24T01:06:56;11.90;;;10.70;;
79365;SDS011;68833;53.160;17.920;2023-04-24T01:09:24;11.40;;;9.70;;
79365;SDS011;68833;53.160;17.920;2023-04-24T01:11:54;11.10;;;9.40;;
79365;SDS011;68833;53.160;17.920;2023-04-24T01:14:23;11.20;;;10.00;;
79365;SDS011;68833;53.160;17.920;2023-04-24T01:16:51;11.80;;;10.10;;
79365;SDS011;68833;53.160;17.920;2023-04-24T01:19:18;12.00;;;9.90;;
79365;SDS011;68833;53.160;17.920;2023-04-24T01:21:46;11.70;;;10.00;;
79365;SDS011;68833;53.160;17.920;2023-04-24T01:24:20;12.40;;;9.90;;
79365;SDS011;68833;53.160;17.920;2023-04-24T01:26:50;10.20;;;8.70;;
79365;SDS011;68833;53.160;17.920;2023-04-24T01:29:20;10.10;;;9.10;;
79365;SDS011;68833;53.160;17.920;2023-04-24T01:31:48;10.80;;;9.60;;
79365;SDS011;68833;53.160;17.920;2023-04-24T01:34:16;10.50;;;9.30;;
79365;SDS011;68833;53.160;17.920;2023-04-24T01:36:45;10.40;;;9.30;;
79365;SDS011;68833;53.160;17.920;2023-04-24T01:39:21;11.10;;;9.70;;
79365;SDS011;68833;53.160;17.920;2023-04-24T01:42:19;11.80;;;10.00;;
79365;SDS011;68833;53.160;17.920;2023-04-24T01:44:55;10.10;;;9.00;;
79365;SDS011;68833;53.160;17.920;2023-04-24T01:47:26;11.10;;;9.90;;
79365;SDS011;68833;53.160;17.920;2023-04-24T01:49:57;11.30;;;9.60;;
79365;SDS011;68833;53.160;17.920;2023-04-24T01:52:33;13.50;;;10.20;;
79365;SDS011;68833;53.160;17.920;2023-04-24T01:55:07;11.60;;;10.30;;
79365;SDS011;68833;53.160;17.920;2023-04-24T01:57:36;10.80;;;9.40;;
79365;SDS011;68833;53.160;17.920;2023-04-24T02:00:06;10.10;;;8.60;;
79365;SDS011;68833;53.160;17.920;2023-04-24T02:02:44;12.80;;;10.20;;
79365;SDS011;68833;53.160;17.920;2023-04-24T02:05:17;12.70;;;10.30;;
79365;SDS011;68833;53.160;17.920;2023-04-24T02:07:48;12.10;;;9.50;;
79365;SDS011;68833;53.160;17.920;2023-04-24T02:10:21;11.90;;;9.30;;
79365;SDS011;68833;53.160;17.920;2023-04-24T02:12:53;10.40;;;8.70;;
79365;SDS011;68833;53.160;17.920;2023-04-24T02:15:26;11.10;;;10.00;;
79365;SDS011;68833;53.160;17.920;2023-04-24T02:18:16;11.30;;;9.00;;
79365;SDS011;68833;53.160;17.920;2023-04-24T02:20:49;11.10;;;10.00;;
79365;SDS011;68833;53.160;17.920;2023-04-24T02:23:17;11.40;;;10.20;;
79365;SDS011;68833;53.160;17.920;2023-04-24T02:25:47;10.20;;;8.70;;
79365;SDS011;68833;53.160;17.920;2023-04-24T02:28:23;13.30;;;11.00;;
79365;SDS011;68833;53.160;17.920;2023-04-24T02:30:52;10.80;;;9.70;;
79365;SDS011;68833;53.160;17.920;2023-04-24T02:33:22;14.70;;;13.00;;
79365;SDS011;68833;53.160;17.920;2023-04-24T02:35:51;11.10;;;10.00;;
79365;SDS011;68833;53.160;17.920;2023-04-24T02:38:19;11.20;;;9.40;;
79365;SDS011;68833;53.160;17.920;2023-04-24T02:40:52;11.90;;;9.50;;
79365;SDS011;68833;53.160;17.920;2023-04-24T02:43:20;11.40;;;9.60;;
79365;SDS011;68833;53.160;17.920;2023-04-24T02:45:48;10.90;;;9.30;;
79365;SDS011;68833;53.160;17.920;2023-04-24T02:48:19;10.60;;;9.40;;
79365;SDS011;68833;53.160;17.920;2023-04-24T02:50:50;13.10;;;11.30;;
79365;SDS011;68833;53.160;17.920;2023-04-24T02:53:18;11.80;;;10.60;;
79365;SDS011;68833;53.160;17.920;2023-04-24T02:55:46;11.20;;;10.00;;
79365;SDS011;68833;53.160;17.920;2023-04-24T02:58:30;12.90;;;11.10;;
79365;SDS011;68833;53.160;17.920;2023-04-24T03:01:00;12.90;;;10.80;;
79365;SDS011;68833;53.160;17.920;2023-04-24T03:03:33;11.70;;;10.50;;
79365;SDS011;68833;53.160;17.920;2023-04-24T03:06:01;14.10;;;11.70;;
79365;SDS011;68833;53.160;17.920;2023-04-24T03:08:28;11.90;;;10.80;;
79365;SDS011;68833;53.160;17.920;2023-04-24T03:10:55;13.10;;;11.80;;
79365;SDS011;68833;53.160;17.920;2023-04-24T03:13:22;11.20;;;9.60;;
79365;SDS011;68833;53.160;17.920;2023-04-24T03:15:50;11.50;;;10.00;;
79365;SDS011;68833;53.160;17.920;2023-04-24T03:18:17;13.00;;;10.30;;
79365;SDS011;68833;53.160;17.920;2023-04-24T03:20:47;12.80;;;11.40;;
79365;SDS011;68833;53.160;17.920;2023-04-24T03:23:14;12.30;;;10.60;;
79365;SDS011;68833;53.160;17.920;2023-04-24T03:25:42;14.90;;;11.30;;
79365;SDS011;68833;53.160;17.920;2023-04-24T03:28:10;15.70;;;11.20;;
79365;SDS011;68833;53.160;17.920;2023-04-24T03:30:48;14.60;;;10.90;;
79365;SDS011;68833;53.160;17.920;2023-04-24T03:33:15;13.10;;;11.30;;
79365;SDS011;68833;53.160;17.920;2023-04-24T03:35:49;13.20;;;11.00;;
79365;SDS011;68833;53.160;17.920;2023-04-24T03:38:16;16.60;;;11.90;;
79365;SDS011;68833;53.160;17.920;2023-04-24T03:41:16;14.00;;;11.90;;
79365;SDS011;68833;53.160;17.920;2023-04-24T03:43:49;14.60;;;11.50;;
79365;SDS011;68833;53.160;17.920;2023-04-24T03:46:16;14.80;;;12.40;;
79365;SDS011;68833;53.160;17.920;2023-04-24T03:48:52;16.80;;;12.90;;
79365;SDS011;68833;53.160;17.920;2023-04-24T03:51:23;15.60;;;12.70;;
79365;SDS011;68833;53.160;17.920;2023-04-24T03:53:52;14.80;;;11.90;;
79365;SDS011;68833;53.160;17.920;2023-04-24T03:56:20;14.40;;;11.30;;
79365;SDS011;68833;53.160;17.920;2023-04-24T03:58:47;18.20;;;13.60;;
79365;SDS011;68833;53.160;17.920;2023-04-24T04:01:15;20.00;;;15.80;;
79365;SDS011;68833;53.160;17.920;2023-04-24T04:03:47;32.40;;;25.00;;
79365;SDS011;68833;53.160;17.920;2023-04-24T04:06:16;27.80;;;19.30;;
79365;SDS011;68833;53.160;17.920;2023-04-24T04:08:44;13.60;;;11.30;;
79365;SDS011;68833;53.160;17.920;2023-04-24T04:11:11;12.90;;;11.00;;
79365;SDS011;68833;53.160;17.920;2023-04-24T04:13:39;15.80;;;11.60;;
79365;SDS011;68833;53.160;17.920;2023-04-24T04:16:06;14.70;;;12.70;;
79365;SDS011;68833;53.160;17.920;2023-04-24T04:18:33;19.20;;;15.70;;
79365;SDS011;68833;53.160;17.920;2023-04-24T04:21:00;16.10;;;13.40;;
79365;SDS011;68833;53.160;17.920;2023-04-24T04:23:28;17.90;;;14.30;;
79365;SDS011;68833;53.160;17.920;2023-04-24T04:26:15;17.50;;;14.40;;
79365;SDS011;68833;53.160;17.920;2023-04-24T04:28:56;15.80;;;13.70;;
79365;SDS011;68833;53.160;17.920;2023-04-24T04:31:24;17.40;;;13.90;;
79365;SDS011;68833;53.160;17.920;2023-04-24T04:33:52;21.40;;;16.20;;
79365;SDS011;68833;53.160;17.920;2023-04-24T04:36:20;25.70;;;17.30;;
79365;SDS011;68833;53.160;17.920;2023-04-24T04:38:52;27.80;;;19.40;;
79365;SDS011;68833;53.160;17.920;2023-04-24T04:41:42;32.20;;;21.50;;
79365;SDS011;68833;53.160;17.920;2023-04-24T04:44:09;44.10;;;31.80;;
79365;SDS011;68833;53.160;17.920;2023-04-24T04:46:36;29.60;;;20.20;;
79365;SDS011;68833;53.160;17.920;2023-04-24T04:49:12;17.10;;;13.20;;
79365;SDS011;68833;53.160;17.920;2023-04-24T04:51:40;19.70;;;16.00;;
79365;SDS011;68833;53.160;17.920;2023-04-24T04:54:07;29.60;;;20.80;;
79365;SDS011;68833;53.160;17.920;2023-04-24T04:56:35;18.60;;;15.10;;
79365;SDS011;68833;53.160;17.920;2023-04-24T04:59:02;19.30;;;14.30;;
79365;SDS011;68833;53.160;17.920;2023-04-24T05:01:32;19.10;;;13.80;;
79365;SDS011;68833;53.160;17.920;2023-04-24T05:03:59;18.60;;;14.40;;
79365;SDS011;68833;53.160;17.920;2023-04-24T05:06:26;17.50;;;13.60;;
79365;SDS011;68833;53.160;17.920;2023-04-24T05:08:54;17.20;;;14.10;;
79365;SDS011;68833;53.160;17.920;2023-04-24T05:11:35;17.10;;;14.00;;
79365;SDS011;68833;53.160;17.920;2023-04-24T05:14:02;16.50;;;13.50;;
79365;SDS011;68833;53.160;17.920;2023-04-24T05:16:35;15.70;;;12.90;;
79365;SDS011;68833;53.160;17.920;2023-04-24T05:19:04;18.10;;;13.00;;
79365;SDS011;68833;53.160;17.920;2023-04-24T05:21:36;16.00;;;12.80;;
79365;SDS011;68833;53.160;17.920;2023-04-24T05:24:03;16.80;;;13.40;;
79365;SDS011;68833;53.160;17.920;2023-04-24T05:26:46;17.10;;;13.40;;
79365;SDS011;68833;53.160;17.920;2023-04-24T05:29:14;23.10;;;17.80;;
79365;SDS011;68833;53.160;17.920;2023-04-24T05:31:42;17.10;;;14.70;;
79365;SDS011;68833;53.160;17.920;2023-04-24T05:34:09;22.20;;;16.60;;
79365;SDS011;68833;53.160;17.920;2023-04-24T05:36:39;27.40;;;19.50;;
79365;SDS011;68833;53.160;17.920;2023-04-24T05:39:07;19.60;;;15.30;;
79365;SDS011;68833;53.160;17.920;2023-04-24T05:41:34;26.50;;;14.50;;
79365;SDS011;68833;53.160;17.920;2023-04-24T05:44:01;15.90;;;12.70;;
79365;SDS011;68833;53.160;17.920;2023-04-24T05:46:28;17.10;;;11.90;;
79365;SDS011;68833;53.160;17.920;2023-04-24T05:48:56;15.20;;;12.40;;
79365;SDS011;68833;53.160;17.920;2023-04-24T05:51:23;21.30;;;14.70;;
79365;SDS011;68833;53.160;17.920;2023-04-24T05:53:51;18.90;;;15.00;;
79365;SDS011;68833;53.160;17.920;2023-04-24T05:56:19;17.30;;;14.50;;
79365;SDS011;68833;53.160;17.920;2023-04-24T05:58:46;16.40;;;14.20;;
79365;SDS011;68833;53.160;17.920;2023-04-24T06:01:14;20.00;;;15.20;;
79365;SDS011;68833;53.160;17.920;2023-04-24T06:03:43;19.40;;;15.10;;
79365;SDS011;68833;53.160;17.920;2023-04-24T06:06:10;23.50;;;17.30;;
79365;SDS011;68833;53.160;17.920;2023-04-24T06:08:37;19.00;;;14.80;;
79365;SDS011;68833;53.160;17.920;2023-04-24T06:11:04;19.80;;;16.50;;
79365;SDS011;68833;53.160;17.920;2023-04-24T06:13:32;19.90;;;15.20;;
79365;SDS011;68833;53.160;17.920;2023-04-24T06:16:29;19.50;;;14.60;;
79365;SDS011;68833;53.160;17.920;2023-04-24T06:19:00;20.70;;;15.60;;
79365;SDS011;68833;53.160;17.920;2023-04-24T06:21:27;23.20;;;14.70;;
79365;SDS011;68833;53.160;17.920;2023-04-24T06:23:55;20.30;;;15.70;;
79365;SDS011;68833;53.160;17.920;2023-04-24T06:26:23;22.80;;;16.30;;
79365;SDS011;68833;53.160;17.920;2023-04-24T06:28:51;19.20;;;15.10;;
79365;SDS011;68833;53.160;17.920;2023-04-24T06:31:20;17.70;;;13.90;;
79365;SDS011;68833;53.160;17.920;2023-04-24T06:33:48;26.40;;;17.30;;
79365;SDS011;68833;53.160;17.920;2023-04-24T06:36:16;26.80;;;19.10;;
79365;SDS011;68833;53.160;17.920;2023-04-24T06:38:43;17.00;;;13.20;;
79365;SDS011;68833;53.160;17.920;2023-04-24T06:41:10;20.90;;;16.30;;
79365;SDS011;68833;53.160;17.920;2023-04-24T06:43:37;22.10;;;16.10;;
79365;SDS011;68833;53.160;17.920;2023-04-24T06:46:04;19.40;;;15.10;;
79365;SDS011;68833;53.160;17.920;2023-04-24T06:48:31;20.90;;;15.30;;
79365;SDS011;68833;53.160;17.920;2023-04-24T06:50:58;31.80;;;19.70;;
79365;SDS011;68833;53.160;17.920;2023-04-24T06:53:25;23.10;;;17.30;;
79365;SDS011;68833;53.160;17.920;2023-04-24T06:55:53;20.30;;;14.40;;
79365;SDS011;68833;53.160;17.920;2023-04-24T06:58:21;21.90;;;16.50;;
79365;SDS011;68833;53.160;17.920;2023-04-24T07:00:48;20.10;;;14.80;;
79365;SDS011;68833;53.160;17.920;2023-04-24T07:03:15;23.50;;;17.90;;
79365;SDS011;68833;53.160;17.920;2023-04-24T07:05:42;20.90;;;15.80;;
79365;SDS011;68833;53.160;17.920;2023-04-24T07:08:09;22.70;;;15.90;;
79365;SDS011;68833;53.160;17.920;2023-04-24T07:10:37;25.40;;;17.80;;
79365;SDS011;68833;53.160;17.920;2023-04-24T07:13:05;20.20;;;14.70;;
79365;SDS011;68833;53.160;17.920;2023-04-24T07:15:33;35.50;;;21.50;;
79365;SDS011;68833;53.160;17.920;2023-04-24T07:18:00;28.60;;;17.70;;
79365;SDS011;68833;53.160;17.920;2023-04-24T07:20:27;26.60;;;18.10;;
79365;SDS011;68833;53.160;17.920;2023-04-24T07:22:54;27.60;;;16.80;;
79365;SDS011;68833;53.160;17.920;2023-04-24T07:25:21;24.80;;;17.40;;
79365;SDS011;68833;53.160;17.920;2023-04-24T07:27:48;17.00;;;11.40;;
79365;SDS011;68833;53.160;17.920;2023-04-24T07:30:15;14.80;;;12.30;;
79365;SDS011;68833;53.160;17.920;2023-04-24T07:32:42;15.30;;;11.20;;
79365;SDS011;68833;53.160;17.920;2023-04-24T07:35:09;15.70;;;11.50;;
79365;SDS011;68833;53.160;17.920;2023-04-24T07:37:36;14.00;;;11.90;;
79365;SDS011;68833;53.160;17.920;2023-04-24T07:40:04;14.90;;;10.40;;
79365;SDS011;68833;53.160;17.920;2023-04-24T07:42:31;11.70;;;9.40;;
79365;SDS011;68833;53.160;17.920;2023-04-24T07:45:01;13.00;;;10.60;;
79365;SDS011;68833;53.160;17.920;2023-04-24T07:47:28;14.30;;;10.40;;
79365;SDS011;68833;53.160;17.920;2023-04-24T07:49:56;13.30;;;8.90;;
79365;SDS011;68833;53.160;17.920;2023-04-24T07:52:23;10.80;;;7.70;;
79365;SDS011;68833;53.160;17.920;2023-04-24T07:54:50;12.30;;;10.20;;
79365;SDS011;68833;53.160;17.920;2023-04-24T07:57:25;11.00;;;8.30;;
79365;SDS011;68833;53.160;17.920;2023-04-24T07:59:52;13.40;;;9.80;;
79365;SDS011;68833;53.160;17.920;2023-04-24T08:02:18;10.80;;;8.00;;
79365;SDS011;68833;53.160;17.920;2023-04-24T08:04:45;10.70;;;8.20;;
79365;SDS011;68833;53.160;17.920;2023-04-24T08:07:12;10.50;;;8.40;;
79365;SDS011;68833;53.160;17.920;2023-04-24T08:09:39;11.60;;;7.80;;
79365;SDS011;68833;53.160;17.920;2023-04-24T08:12:06;14.00;;;9.00;;
79365;SDS011;68833;53.160;17.920;2023-04-24T08:14:33;10.30;;;8.20;;
79365;SDS011;68833;53.160;17.920;2023-04-24T08:17:00;12.90;;;8.10;;
79365;SDS011;68833;53.160;17.920;2023-04-24T08:19:29;10.20;;;8.40;;
79365;SDS011;68833;53.160;17.920;2023-04-24T08:21:56;11.40;;;8.20;;
79365;SDS011;68833;53.160;17.920;2023-04-24T08:24:23;11.70;;;8.00;;
79365;SDS011;68833;53.160;17.920;2023-04-24T08:26:50;8.80;;;7.30;;
79365;SDS011;68833;53.160;17.920;2023-04-24T08:29:18;13.60;;;9.00;;
79365;SDS011;68833;53.160;17.920;2023-04-24T08:31:44;10.50;;;8.30;;
79365;SDS011;68833;53.160;17.920;2023-04-24T08:34:11;12.20;;;8.10;;
79365;SDS011;68833;53.160;17.920;2023-04-24T08:36:38;8.30;;;7.40;;
79365;SDS011;68833;53.160;17.920;2023-04-24T08:39:07;11.00;;;6.70;;
79365;SDS011;68833;53.160;17.920;2023-04-24T08:41:34;9.30;;;6.90;;
79365;SDS011;68833;53.160;17.920;2023-04-24T08:44:02;10.70;;;8.00;;
79365;SDS011;68833;53.160;17.920;2023-04-24T08:46:29;9.50;;;7.50;;
79365;SDS011;68833;53.160;17.920;2023-04-24T08:48:57;7.70;;;6.50;;
79365;SDS011;68833;53.160;17.920;2023-04-24T08:51:25;7.90;;;6.20;;
79365;SDS011;68833;53.160;17.920;2023-04-24T08:53:53;8.60;;;7.20;;
79365;SDS011;68833;53.160;17.920;2023-04-24T08:56:21;10.50;;;7.00;;
79365;SDS011;68833;53.160;17.920;2023-04-24T08:58:50;8.20;;;6.90;;
79365;SDS011;68833;53.160;17.920;2023-04-24T09:01:19;8.60;;;6.90;;
79365;SDS011;68833;53.160;17.920;2023-04-24T09:03:48;8.30;;;6.20;;
79365;SDS011;68833;53.160;17.920;2023-04-24T09:06:16;8.00;;;6.60;;
79365;SDS011;68833;53.160;17.920;2023-04-24T09:08:45;8.50;;;6.60;;
79365;SDS011;68833;53.160;17.920;2023-04-24T09:11:13;8.20;;;7.30;;
79365;SDS011;68833;53.160;17.920;2023-04-24T09:13:40;12.50;;;7.20;;
79365;SDS011;68833;53.160;17.920;2023-04-24T09:16:08;11.20;;;7.50;;
79365;SDS011;68833;53.160;17.920;2023-04-24T09:18:35;8.50;;;7.30;;
79365;SDS011;68833;53.160;17.920;2023-04-24T09:21:08;8.10;;;6.60;;
79365;SDS011;68833;53.160;17.920;2023-04-24T09:23:36;9.10;;;7.70;;
79365;SDS011;68833;53.160;17.920;2023-04-24T09:26:03;12.60;;;7.80;;
79365;SDS011;68833;53.160;17.920;2023-04-24T09:28:36;9.10;;;7.50;;
79365;SDS011;68833;53.160;17.920;2023-04-24T09:31:08;10.70;;;7.30;;
79365;SDS011;68833;53.160;17.920;2023-04-24T09:33:53;8.90;;;8.00;;
79365;SDS011;68833;53.160;17.920;2023-04-24T09:36:22;8.90;;;7.40;;
79365;SDS011;68833;53.160;17.920;2023-04-24T09:39:03;11.20;;;7.60;;
79365;SDS011;68833;53.160;17.920;2023-04-24T09:41:32;9.40;;;6.80;;
79365;SDS011;68833;53.160;17.920;2023-04-24T09:44:15;8.40;;;6.80;;
79365;SDS011;68833;53.160;17.920;2023-04-24T09:46:45;8.30;;;6.40;;
79365;SDS011;68833;53.160;17.920;2023-04-24T09:49:16;9.50;;;7.00;;
79365;SDS011;68833;53.160;17.920;2023-04-24T09:51:48;8.50;;;6.10;;
79365;SDS011;68833;53.160;17.920;2023-04-24T09:54:16;9.30;;;6.30;;
79365;SDS011;68833;53.160;17.920;2023-04-24T09:56:50;9.30;;;5.80;;
79365;SDS011;68833;53.160;17.920;2023-04-24T09:59:18;10.70;;;5.90;;
79365;SDS011;68833;53.160;17.920;2023-04-24T10:03:37;10.10;;;6.70;;
79365;SDS011;68833;53.160;17.920;2023-04-24T10:06:04;9.70;;;6.60;;
79365;SDS011;68833;53.160;17.920;2023-04-24T10:08:35;9.30;;;6.20;;
79365;SDS011;68833;53.160;17.920;2023-04-24T10:11:04;9.90;;;7.70;;
79365;SDS011;68833;53.160;17.920;2023-04-24T10:13:31;8.70;;;6.30;;
79365;SDS011;68833;53.160;17.920;2023-04-24T10:15:59;9.50;;;6.50;;
79365;SDS011;68833;53.160;17.920;2023-04-24T10:18:27;9.40;;;7.10;;
79365;SDS011;68833;53.160;17.920;2023-04-24T10:20:54;10.50;;;6.70;;
79365;SDS011;68833;53.160;17.920;2023-04-24T10:23:22;8.50;;;6.70;;
79365;SDS011;68833;53.160;17.920;2023-04-24T10:28:19;8.20;;;6.30;;
79365;SDS011;68833;53.160;17.920;2023-04-24T10:30:46;7.60;;;6.10;;
79365;SDS011;68833;53.160;17.920;2023-04-24T10:33:15;7.90;;;6.50;;
79365;SDS011;68833;53.160;17.920;2023-04-24T10:35:45;7.40;;;6.00;;
79365;SDS011;68833;53.160;17.920;2023-04-24T10:38:16;7.20;;;6.20;;
79365;SDS011;68833;53.160;17.920;2023-04-24T10:40:50;7.20;;;6.30;;
79365;SDS011;68833;53.160;17.920;2023-04-24T10:43:18;10.60;;;7.10;;
79365;SDS011;68833;53.160;17.920;2023-04-24T10:45:59;8.60;;;5.90;;
79365;SDS011;68833;53.160;17.920;2023-04-24T10:48:28;9.50;;;7.10;;
79365;SDS011;68833;53.160;17.920;2023-04-24T10:50:55;7.80;;;6.70;;
79365;SDS011;68833;53.160;17.920;2023-04-24T10:53:23;8.80;;;6.70;;
79365;SDS011;68833;53.160;17.920;2023-04-24T10:58:23;7.80;;;6.80;;
79365;SDS011;68833;53.160;17.920;2023-04-24T11:00:58;8.40;;;5.80;;
79365;SDS011;68833;53.160;17.920;2023-04-24T11:03:26;9.00;;;6.70;;
79365;SDS011;68833;53.160;17.920;2023-04-24T11:06:02;8.70;;;6.60;;
79365;SDS011;68833;53.160;17.920;2023-04-24T11:08:45;9.40;;;7.10;;
79365;SDS011;68833;53.160;17.920;2023-04-24T11:11:16;10.40;;;6.90;;
79365;SDS011;68833;53.160;17.920;2023-04-24T11:16:24;9.40;;;7.20;;
79365;SDS011;68833;53.160;17.920;2023-04-24T11:21:42;8.80;;;6.30;;
79365;SDS011;68833;53.160;17.920;2023-04-24T11:24:29;10.10;;;6.80;;
79365;SDS011;68833;53.160;17.920;2023-04-24T11:30:10;8.20;;;6.20;;
79365;SDS011;68833;53.160;17.920;2023-04-24T11:32:30;10.20;;;6.30;;
79365;SDS011;68833;53.160;17.920;2023-04-24T11:34:58;10.10;;;7.90;;
79365;SDS011;68833;53.160;17.920;2023-04-24T11:37:34;9.60;;;6.80;;
79365;SDS011;68833;53.160;17.920;2023-04-24T11:40:02;8.90;;;6.60;;
79365;SDS011;68833;53.160;17.920;2023-04-24T11:42:40;9.90;;;6.90;;
79365;SDS011;68833;53.160;17.920;2023-04-24T11:45:11;12.30;;;8.30;;
79365;SDS011;68833;53.160;17.920;2023-04-24T11:47:40;10.10;;;8.70;;
79365;SDS011;68833;53.160;17.920;2023-04-24T11:50:10;12.60;;;9.00;;
79365;SDS011;68833;53.160;17.920;2023-04-24T11:52:43;11.20;;;7.80;;
79365;SDS011;68833;53.160;17.920;2023-04-24T11:57:51;7.60;;;6.30;;
79365;SDS011;68833;53.160;17.920;2023-04-24T12:00:23;9.80;;;8.50;;
79365;SDS011;68833;53.160;17.920;2023-04-24T12:02:50;9.10;;;7.90;;
79365;SDS011;68833;53.160;17.920;2023-04-24T12:07:48;11.00;;;8.60;;
79365;SDS011;68833;53.160;17.920;2023-04-24T12:10:19;10.10;;;8.00;;
79365;SDS011;68833;53.160;17.920;2023-04-24T12:12:48;11.10;;;8.90;;
79365;SDS011;68833;53.160;17.920;2023-04-24T12:15:17;11.10;;;7.30;;
79365;SDS011;68833;53.160;17.920;2023-04-24T12:17:45;8.60;;;7.50;;
79365;SDS011;68833;53.160;17.920;2023-04-24T12:20:14;8.70;;;7.80;;
79365;SDS011;68833;53.160;17.920;2023-04-24T12:22:51;8.00;;;6.40;;
79365;SDS011;68833;53.160;17.920;2023-04-24T12:27:54;6.90;;;5.70;;
79365;SDS011;68833;53.160;17.920;2023-04-24T12:30:44;7.70;;;5.10;;
79365;SDS011;68833;53.160;17.920;2023-04-24T12:33:21;10.10;;;6.10;;
79365;SDS011;68833;53.160;17.920;2023-04-24T12:35:51;7.00;;;5.90;;
79365;SDS011;68833;53.160;17.920;2023-04-24T12:38:22;8.70;;;7.10;;
79365;SDS011;68833;53.160;17.920;2023-04-24T12:41:01;9.60;;;7.70;;
79365;SDS011;68833;53.160;17.920;2023-04-24T12:43:30;8.00;;;7.20;;
79365;SDS011;68833;53.160;17.920;2023-04-24T12:45:57;11.10;;;7.90;;
79365;SDS011;68833;53.160;17.920;2023-04-24T12:48:28;8.30;;;7.40;;
79365;SDS011;68833;53.160;17.920;2023-04-24T12:50:57;9.00;;;8.10;;
79365;SDS011;68833;53.160;17.920;2023-04-24T12:53:28;9.40;;;8.40;;
79365;SDS011;68833;53.160;17.920;2023-04-24T12:55:58;9.90;;;8.80;;
79365;SDS011;68833;53.160;17.920;2023-04-24T12:58:25;8.80;;;7.20;;
79365;SDS011;68833;53.160;17.920;2023-04-24T13:00:52;9.90;;;7.30;;
79365;SDS011;68833;53.160;17.920;2023-04-24T13:03:19;9.60;;;7.90;;
79365;SDS011;68833;53.160;17.920;2023-04-24T13:05:49;10.90;;;8.60;;
79365;SDS011;68833;53.160;17.920;2023-04-24T13:08:16;9.30;;;8.30;;
79365;SDS011;68833;53.160;17.920;2023-04-24T13:10:43;8.20;;;7.30;;
79365;SDS011;68833;53.160;17.920;2023-04-24T13:13:10;9.90;;;8.80;;
79365;SDS011;68833;53.160;17.920;2023-04-24T13:15:37;10.30;;;8.10;;
79365;SDS011;68833;53.160;17.920;2023-04-24T13:18:04;9.80;;;8.10;;
79365;SDS011;68833;53.160;17.920;2023-04-24T13:20:34;9.70;;;8.20;;
79365;SDS011;68833;53.160;17.920;2023-04-24T13:23:02;9.40;;;8.40;;
79365;SDS011;68833;53.160;17.920;2023-04-24T13:28:01;8.80;;;7.20;;
79365;SDS011;68833;53.160;17.920;2023-04-24T13:30:28;8.60;;;6.80;;
79365;SDS011;68833;53.160;17.920;2023-04-24T13:32:55;7.40;;;6.00;;
79365;SDS011;68833;53.160;17.920;2023-04-24T13:35:22;7.20;;;6.50;;
79365;SDS011;68833;53.160;17.920;2023-04-24T13:37:49;5.70;;;4.80;;
79365;SDS011;68833;53.160;17.920;2023-04-24T13:40:16;7.90;;;5.50;;
79365;SDS011;68833;53.160;17.920;2023-04-24T13:42:43;8.10;;;5.50;;
79365;SDS011;68833;53.160;17.920;2023-04-24T13:45:10;6.30;;;4.60;;
79365;SDS011;68833;53.160;17.920;2023-04-24T13:47:37;5.80;;;4.90;;
79365;SDS011;68833;53.160;17.920;2023-04-24T13:50:08;5.40;;;4.50;;
79365;SDS011;68833;53.160;17.920;2023-04-24T13:52:36;6.20;;;4.90;;
79365;SDS011;68833;53.160;17.920;2023-04-24T13:55:03;6.60;;;5.50;;
79365;SDS011;68833;53.160;17.920;2023-04-24T13:57:30;9.50;;;5.20;;
79365;SDS011;68833;53.160;17.920;2023-04-24T13:59:58;6.50;;;4.80;;
79365;SDS011;68833;53.160;17.920;2023-04-24T14:02:27;5.80;;;5.20;;
79365;SDS011;68833;53.160;17.920;2023-04-24T14:04:55;5.40;;;4.60;;
79365;SDS011;68833;53.160;17.920;2023-04-24T14:07:22;6.10;;;5.10;;
79365;SDS011;68833;53.160;17.920;2023-04-24T14:09:49;7.20;;;5.90;;
79365;SDS011;68833;53.160;17.920;2023-04-24T14:12:16;7.20;;;5.60;;
79365;SDS011;68833;53.160;17.920;2023-04-24T14:14:46;5.50;;;5.00;;
79365;SDS011;68833;53.160;17.920;2023-04-24T14:17:14;7.70;;;5.90;;
79365;SDS011;68833;53.160;17.920;2023-04-24T14:19:41;6.20;;;5.60;;
79365;SDS011;68833;53.160;17.920;2023-04-24T14:22:09;6.00;;;5.40;;
79365;SDS011;68833;53.160;17.920;2023-04-24T14:24:36;6.60;;;5.80;;
79365;SDS011;68833;53.160;17.920;2023-04-24T14:27:03;7.40;;;5.90;;
79365;SDS011;68833;53.160;17.920;2023-04-24T14:29:30;6.40;;;5.40;;
79365;SDS011;68833;53.160;17.920;2023-04-24T14:31:57;5.80;;;5.20;;
79365;SDS011;68833;53.160;17.920;2023-04-24T14:34:24;7.10;;;5.50;;
79365;SDS011;68833;53.160;17.920;2023-04-24T14:36:52;7.00;;;5.40;;
79365;SDS011;68833;53.160;17.920;2023-04-24T14:39:19;5.10;;;4.50;;
79365;SDS011;68833;53.160;17.920;2023-04-24T14:41:46;4.70;;;4.10;;
79365;SDS011;68833;53.160;17.920;2023-04-24T14:44:13;4.70;;;4.20;;
79365;SDS011;68833;53.160;17.920;2023-04-24T14:46:41;5.20;;;4.50;;
79365;SDS011;68833;53.160;17.920;2023-04-24T14:49:08;5.90;;;4.40;;
79365;SDS011;68833;53.160;17.920;2023-04-24T14:51:36;5.30;;;4.60;;
79365;SDS011;68833;53.160;17.920;2023-04-24T14:54:03;4.50;;;3.90;;
79365;SDS011;68833;53.160;17.920;2023-04-24T14:56:30;4.50;;;4.10;;
79365;SDS011;68833;53.160;17.920;2023-04-24T14:58:57;4.10;;;3.70;;
79365;SDS011;68833;53.160;17.920;2023-04-24T15:01:24;5.20;;;4.70;;